sensor_id;sensor_type;location;lat;lon;timestamp;P1;P2;P0
61879;PMS7003;47817;52.798;27.544;2023-03-01T00:01:53;7.8;6.8;4.8
61879;PMS7003;47817;52.798;27.544;2023-03-01T00:06:11;12.2;9;6.4
61879;PMS7003;47817;52.798;27.544;2023-03-01T00:11:55;11.3;7;5.3
61879;PMS7003;47817;52.798;27.544;2023-03-01T00:16:45;9.8;7.2;5.6
61879;PMS7003;47817;52.798;27.544;2023-03-01T00:21:55;12;8;6.6
61879;PMS7003;47817;52.798;27.544;2023-03-01T00:26:12;12.4;9.6;5.4
61879;PMS7003;47817;52.798;27.544;2023-03-01T00:31:13;11.2;8;6
61879;PMS7003;47817;52.798;27.544;2023-03-01T00:36:53;10.6;7.6;5.6
61879;PMS7003;47817;52.798;27.544;2023-03-01T00:41:45;8.6;7.4;5.8
61879;PMS7003;47817;52.798;27.544;2023-03-01T00:46:55;12.6;8.6;6.4
61879;PMS7003;47817;52.798;27.544;2023-03-01T00:51:33;8.8;6.8;5.8
61879;PMS7003;47817;52.798;27.544;2023-03-01T00:56:41;11.2;9.4;5.6
61879;PMS7003;47817;52.798;27.544;2023-03-01T01:01:53;12.6;10.2;6.6
61879;PMS7003;47817;52.798;27.544;2023-03-01T01:06:46;12.2;8;5.6
61879;PMS7003;47817;52.798;27.544;2023-03-01T01:11:27;11.2;7.6;5.4
61879;PMS7003;47817;52.798;27.544;2023-03-01T01:16:11;9;7.6;5.2
61879;PMS7003;47817;52.798;27.544;2023-03-01T01:21:20;9;7.4;5.4
61879;PMS7003;47817;52.798;27.544;2023-03-01T01:26:32;13;9;6
61879;PMS7003;47817;52.798;27.544;2023-03-01T01:31:53;9.4;7.2;5.2
61879;PMS7003;47817;52.798;27.544;2023-03-01T01:36:47;9.8;8;6
61879;PMS7003;47817;52.798;27.544;2023-03-01T01:41:31;11.2;7.4;5.2
61879;PMS7003;47817;52.798;27.544;2023-03-01T01:46:15;11.5;9.3;7
61879;PMS7003;47817;52.798;27.544;2023-03-01T01:51:33;12.6;7.8;6.6
61879;PMS7003;47817;52.798;27.544;2023-03-01T01:56:56;13.5;9;6.5
61879;PMS7003;47817;52.798;27.544;2023-03-01T02:01:19;12;8.8;6.4
61879;PMS7003;47817;52.798;27.544;2023-03-01T02:06:34;11.4;6.8;5
61879;PMS7003;47817;52.798;27.544;2023-03-01T02:11:19;9.8;7.4;6
61879;PMS7003;47817;52.798;27.544;2023-03-01T02:16:33;13.2;7.8;5.6
61879;PMS7003;47817;52.798;27.544;2023-03-01T02:21:56;12.8;10.2;6
61879;PMS7003;47817;52.798;27.544;2023-03-01T02:26:46;9.8;6.8;5.6
61879;PMS7003;47817;52.798;27.544;2023-03-01T02:31:14;10.8;6.2;4.2
61879;PMS7003;47817;52.798;27.544;2023-03-01T02:36:18;10.2;7.6;5.2
61879;PMS7003;47817;52.798;27.544;2023-03-01T02:41:42;13.8;8.4;5.2
61879;PMS7003;47817;52.798;27.544;2023-03-01T02:46:47;11;8;5.2
61879;PMS7003;47817;52.798;27.544;2023-03-01T02:51:47;12.3;7.3;5
61879;PMS7003;47817;52.798;27.544;2023-03-01T02:56:33;13.4;9.8;6.2
61879;PMS7003;47817;52.798;27.544;2023-03-01T03:01:20;11.4;7;5
61879;PMS7003;47817;52.798;27.544;2023-03-01T03:06:25;10.2;7.4;5.2
61879;PMS7003;47817;52.798;27.544;2023-03-01T03:11:55;9.8;8;5.6
61879;PMS7003;47817;52.798;27.544;2023-03-01T03:16:33;11.4;8.6;5.8
61879;PMS7003;47817;52.798;27.544;2023-03-01T03:21:55;10;6.4;4.4
61879;PMS7003;47817;52.798;27.544;2023-03-01T03:26:11;12.8;10.6;7.4
61879;PMS7003;47817;52.798;27.544;2023-03-01T03:31:19;11;8.2;6
61879;PMS7003;47817;52.798;27.544;2023-03-01T03:36:56;9.8;8;6
61879;PMS7003;47817;52.798;27.544;2023-03-01T03:41:45;10.8;9.3;6.3
61879;PMS7003;47817;52.798;27.544;2023-03-01T03:46:33;12.6;8.4;6.6
61879;PMS7003;47817;52.798;27.544;2023-03-01T03:51:23;12.8;8.4;5.6
61879;PMS7003;47817;52.798;27.544;2023-03-01T03:56:31;11.6;8;6
61879;PMS7003;47817;52.798;27.544;2023-03-01T04:01:53;12;8.6;5.4
61879;PMS7003;47817;52.798;27.544;2023-03-01T04:06:43;10.6;7.6;5.4
61879;PMS7003;47817;52.798;27.544;2023-03-01T04:11:33;25.8;17.8;12.8
61879;PMS7003;47817;52.798;27.544;2023-03-01T04:16:11;19.4;13.2;9.4
61879;PMS7003;47817;52.798;27.544;2023-03-01T04:21:33;15;11.8;7.2
61879;PMS7003;47817;52.798;27.544;2023-03-01T04:26:55;9.6;7.4;6
61879;PMS7003;47817;52.798;27.544;2023-03-01T04:31:45;8.6;7.8;5.4
61879;PMS7003;47817;52.798;27.544;2023-03-01T04:36:29;9.4;7.4;5.8
61879;PMS7003;47817;52.798;27.544;2023-03-01T04:41:45;8.2;5.6;4.2
61879;PMS7003;47817;52.798;27.544;2023-03-01T04:46:31;10.8;7.6;5.2
61879;PMS7003;47817;52.798;27.544;2023-03-01T04:51:55;11.4;9.2;6.8
61879;PMS7003;47817;52.798;27.544;2023-03-01T04:56:43;10;7.2;5.8
61879;PMS7003;47817;52.798;27.544;2023-03-01T05:01:18;11.5;10.3;7.3
61879;PMS7003;47817;52.798;27.544;2023-03-01T05:06:31;12;10;7.4
61879;PMS7003;47817;52.798;27.544;2023-03-01T05:11:11;10.4;8.4;5.8
61879;PMS7003;47817;52.798;27.544;2023-03-01T05:16:53;11;7.8;5.4
61879;PMS7003;47817;52.798;27.544;2023-03-01T05:21:29;10.6;8.6;7
61879;PMS7003;47817;52.798;27.544;2023-03-01T05:26:51;11.4;9.6;6.8
61879;PMS7003;47817;52.798;27.544;2023-03-01T05:31:23;10.6;8;6.4
61879;PMS7003;47817;52.798;27.544;2023-03-01T05:36:29;13.8;10.2;7.2
61879;PMS7003;47817;52.798;27.544;2023-03-01T05:41:54;13.6;10;7.2
61879;PMS7003;47817;52.798;27.544;2023-03-01T05:46:45;14.8;10.8;8.8
61879;PMS7003;47817;52.798;27.544;2023-03-01T05:51:53;13.8;10.8;7
61879;PMS7003;47817;52.798;27.544;2023-03-01T05:56:21;11;9.8;7.4
61879;PMS7003;47817;52.798;27.544;2023-03-01T06:01:31;11.8;8.6;6.6
61879;PMS7003;47817;52.798;27.544;2023-03-01T06:06:53;11.3;9.8;7
61879;PMS7003;47817;52.798;27.544;2023-03-01T06:11:45;12;9;6.8
61879;PMS7003;47817;52.798;27.544;2023-03-01T06:16:55;12.6;9.4;6.8
61879;PMS7003;47817;52.798;27.544;2023-03-01T06:21:11;11.8;10.2;6.6
61879;PMS7003;47817;52.798;27.544;2023-03-01T06:26:31;10.8;9.2;6.4
61879;PMS7003;47817;52.798;27.544;2023-03-01T06:31:43;12.4;9.6;7.6
61879;PMS7003;47817;52.798;27.544;2023-03-01T06:36:46;14;11;8.6
61879;PMS7003;47817;52.798;27.544;2023-03-01T06:41:53;11;8.2;5.6
61879;PMS7003;47817;52.798;27.544;2023-03-01T06:46:11;12.8;9;7
61879;PMS7003;47817;52.798;27.544;2023-03-01T06:51:31;16;10.4;7.6
61879;PMS7003;47817;52.798;27.544;2023-03-01T06:56:55;14.4;11.2;7.6
61879;PMS7003;47817;52.798;27.544;2023-03-01T07:01:45;13;10.2;7.2
61879;PMS7003;47817;52.798;27.544;2023-03-01T07:06:57;10.5;10.5;7.3
61879;PMS7003;47817;52.798;27.544;2023-03-01T07:11:11;12.2;11.4;8.6
61879;PMS7003;47817;52.798;27.544;2023-03-01T07:16:25;13.4;10.2;7.6
61879;PMS7003;47817;52.798;27.544;2023-03-01T07:21:59;13.6;10.4;7.8
61879;PMS7003;47817;52.798;27.544;2023-03-01T07:26:49;12.8;10.8;7.4
61879;PMS7003;47817;52.798;27.544;2023-03-01T07:31:59;14.2;11.2;8.2
61879;PMS7003;47817;52.798;27.544;2023-03-01T07:36:11;11.2;10.2;8.6
61879;PMS7003;47817;52.798;27.544;2023-03-01T07:41:11;12.5;9;6
61879;PMS7003;47817;52.798;27.544;2023-03-01T07:46:59;12.2;10.4;7.6
61879;PMS7003;47817;52.798;27.544;2023-03-01T07:51:49;13.4;11;8.6
61879;PMS7003;47817;52.798;27.544;2023-03-01T07:56:59;15.6;11.2;7.8
61879;PMS7003;47817;52.798;27.544;2023-03-01T08:01:23;14;12.6;9.2
61879;PMS7003;47817;52.798;27.544;2023-03-01T08:06:29;14.6;12.2;8.2
61879;PMS7003;47817;52.798;27.544;2023-03-01T08:11:57;10.3;8.5;6
61879;PMS7003;47817;52.798;27.544;2023-03-01T08:16:48;10.4;8;5.6
61879;PMS7003;47817;52.798;27.544;2023-03-01T08:21:57;8.6;5.4;3.4
61879;PMS7003;47817;52.798;27.544;2023-03-01T08:26:21;5.2;4;3
61879;PMS7003;47817;52.798;27.544;2023-03-01T08:31:21;3.8;3.2;1.8
61879;PMS7003;47817;52.798;27.544;2023-03-01T08:36:59;5;3.4;2.6
61879;PMS7003;47817;52.798;27.544;2023-03-01T08:41:47;3;1.6;1.6
61879;PMS7003;47817;52.798;27.544;2023-03-01T08:46:59;3.2;2;1.4
61879;PMS7003;47817;52.798;27.544;2023-03-01T08:51:23;2.6;1.2;1
61879;PMS7003;47817;52.798;27.544;2023-03-01T08:56:17;1.2;1;1
61879;PMS7003;47817;52.798;27.544;2023-03-01T09:01:57;2;0.8;0.8
61879;PMS7003;47817;52.798;27.544;2023-03-01T09:06:47;1.2;0.6;0.6
61879;PMS7003;47817;52.798;27.544;2023-03-01T09:11:57;2.6;1;1
61879;PMS7003;47817;52.798;27.544;2023-03-01T09:16:12;3.6;1.2;1.2
61879;PMS7003;47817;52.798;27.544;2023-03-01T09:21:45;1.6;0.8;0.6
61879;PMS7003;47817;52.798;27.544;2023-03-01T09:26:12;2.2;0.4;0.4
61879;PMS7003;47817;52.798;27.544;2023-03-01T09:31:33;2;0.2;0.2
61879;PMS7003;47817;52.798;27.544;2023-03-01T09:36:45;0;0;0
61879;PMS7003;47817;52.798;27.544;2023-03-01T09:41:41;0.6;0.2;0
61879;PMS7003;47817;52.798;27.544;2023-03-01T09:46:57;1.2;0;0
61879;PMS7003;47817;52.798;27.544;2023-03-01T09:51:22;0.8;0.2;0
61879;PMS7003;47817;52.798;27.544;2023-03-01T09:56:12;0.4;0;0
61879;PMS7003;47817;52.798;27.544;2023-03-01T10:01:46;1.4;0.4;0
61879;PMS7003;47817;52.798;27.544;2023-03-01T10:06:22;0;0;0
61879;PMS7003;47817;52.798;27.544;2023-03-01T10:11:55;1;0.2;0
61879;PMS7003;47817;52.798;27.544;2023-03-01T10:16:26;0.8;0.8;0.8
61879;PMS7003;47817;52.798;27.544;2023-03-01T10:21:34;1;0.8;0.4
61879;PMS7003;47817;52.798;27.544;2023-03-01T10:26:44;2.4;1.2;0.6
61879;PMS7003;47817;52.798;27.544;2023-03-01T10:31:12;0.8;0.4;0.4
61879;PMS7003;47817;52.798;27.544;2023-03-01T10:36:58;1.6;1.2;0.8
61879;PMS7003;47817;52.798;27.544;2023-03-01T10:41:11;1.2;1;1
61879;PMS7003;47817;52.798;27.544;2023-03-01T10:46:34;2.2;1.4;1
61879;PMS7003;47817;52.798;27.544;2023-03-01T10:51:44;2.8;1.4;1
61879;PMS7003;47817;52.798;27.544;2023-03-01T10:56:12;1.2;1;1
61879;PMS7003;47817;52.798;27.544;2023-03-01T11:01:41;1.8;1.2;1
61879;PMS7003;47817;52.798;27.544;2023-03-01T11:06:20;1;0.5;0.5
61879;PMS7003;47817;52.798;27.544;2023-03-01T11:11:14;0.6;0.6;0.6
61879;PMS7003;47817;52.798;27.544;2023-03-01T11:16:46;1.4;0.8;0.6
61879;PMS7003;47817;52.798;27.544;2023-03-01T11:21:11;2;0.6;0.6
61879;PMS7003;47817;52.798;27.544;2023-03-01T11:26:57;0.8;0.6;0
61879;PMS7003;47817;52.798;27.544;2023-03-01T11:31:23;3;1.5;1
61879;PMS7003;47817;52.798;27.544;2023-03-01T11:36:32;1.8;0.8;0.8
61879;PMS7003;47817;52.798;27.544;2023-03-01T11:41:46;0.8;0.6;0.6
61879;PMS7003;47817;52.798;27.544;2023-03-01T11:46:40;0.4;0.4;0.4
61879;PMS7003;47817;52.798;27.544;2023-03-01T11:51:57;1.2;0.6;0.6
61879;PMS7003;47817;52.798;27.544;2023-03-01T11:56:36;1.4;1;0.8
61879;PMS7003;47817;52.798;27.544;2023-03-01T12:01:25;1.2;1;0.8
61879;PMS7003;47817;52.798;27.544;2023-03-01T12:06:44;0.6;0.6;0.6
61879;PMS7003;47817;52.798;27.544;2023-03-01T12:11:22;1.4;0.8;0.6
61879;PMS7003;47817;52.798;27.544;2023-03-01T12:16:33;1.8;1;0.8
61879;PMS7003;47817;52.798;27.544;2023-03-01T12:22:01;2.3;0.5;0.5
61879;PMS7003;47817;52.798;27.544;2023-03-01T12:26:24;1.6;1;0.8
61879;PMS7003;47817;52.798;27.544;2023-03-01T12:31:55;2.8;1.2;1
61879;PMS7003;47817;52.798;27.544;2023-03-01T12:36:15;0.4;0;0
61879;PMS7003;47817;52.798;27.544;2023-03-01T12:41:58;0.4;0;0
61879;PMS7003;47817;52.798;27.544;2023-03-01T12:46:21;0.8;0;0
61879;PMS7003;47817;52.798;27.544;2023-03-01T12:51:30;0;0;0
61879;PMS7003;47817;52.798;27.544;2023-03-01T12:56:43;1.2;0;0
61879;PMS7003;47817;52.798;27.544;2023-03-01T13:01:26;0.2;0;0
61879;PMS7003;47817;52.798;27.544;2023-03-01T13:07:00;0;0;0
61879;PMS7003;47817;52.798;27.544;2023-03-01T13:11:15;4.2;1.8;1.2
61879;PMS7003;47817;52.798;27.544;2023-03-01T13:16:41;1.2;0.8;0.6
61879;PMS7003;47817;52.798;27.544;2023-03-01T13:21:58;1.2;0;0
61879;PMS7003;47817;52.798;27.544;2023-03-01T13:26:35;0.4;0.4;0.2
61879;PMS7003;47817;52.798;27.544;2023-03-01T13:48:47;1;0;0
61879;PMS7003;47817;52.798;27.544;2023-03-01T14:09:01;0.5;0.5;0.5
61879;PMS7003;47817;52.798;27.544;2023-03-01T14:13:48;2.8;0.4;0.4
61879;PMS7003;47817;52.798;27.544;2023-03-01T14:19:10;1.5;0.3;0.3
61879;PMS7003;47817;52.798;27.544;2023-03-01T14:23:24;0.4;0.4;0.4
61879;PMS7003;47817;52.798;27.544;2023-03-01T14:28:32;0.8;0.4;0.2
61879;PMS7003;47817;52.798;27.544;2023-03-01T14:33:54;0.4;0;0
61879;PMS7003;47817;52.798;27.544;2023-03-01T14:38:23;1.2;0.8;0.4
61879;PMS7003;47817;52.798;27.544;2023-03-01T14:44:12;3.5;2.5;2
61879;PMS7003;47817;52.798;27.544;2023-03-01T14:49:00;0.6;0.4;0.4
61879;PMS7003;47817;52.798;27.544;2023-03-01T14:53:32;2;0.8;0.8
61879;PMS7003;47817;52.798;27.544;2023-03-01T14:58:57;0.6;0.2;0.2
61879;PMS7003;47817;52.798;27.544;2023-03-01T15:03:45;1.6;0.6;0.4
61879;PMS7003;47817;52.798;27.544;2023-03-01T15:09:11;1.4;0.6;0.6
61879;PMS7003;47817;52.798;27.544;2023-03-01T15:13:56;1.4;1;1
61879;PMS7003;47817;52.798;27.544;2023-03-01T15:18:24;1.4;1;1
61879;PMS7003;47817;52.798;27.544;2023-03-01T15:23:57;1.4;0.6;0.6
61879;PMS7003;47817;52.798;27.544;2023-03-01T15:28:36;1.8;1;0.8
61879;PMS7003;47817;52.798;27.544;2023-03-01T15:34:09;2.6;1.2;1.2
61879;PMS7003;47817;52.798;27.544;2023-03-01T15:38:57;1.6;1;0.6
61879;PMS7003;47817;52.798;27.544;2023-03-01T15:43:38;1.8;1.4;1.4
61879;PMS7003;47817;52.798;27.544;2023-03-01T15:48:57;2;1;0.8
61879;PMS7003;47817;52.798;27.544;2023-03-01T15:53:34;3.6;2.8;2.4
61879;PMS7003;47817;52.798;27.544;2023-03-01T15:59:08;13;11;8.8
61879;PMS7003;47817;52.798;27.544;2023-03-01T16:03:54;19.4;16.8;11.6
61879;PMS7003;47817;52.798;27.544;2023-03-01T16:08:34;10.6;9;6.8
61879;PMS7003;47817;52.798;27.544;2023-03-01T16:13:56;9;8;6.3
61879;PMS7003;47817;52.798;27.544;2023-03-01T16:18:46;12.4;8;6.2
61879;PMS7003;47817;52.798;27.544;2023-03-01T16:24:08;6.8;3.6;3
61879;PMS7003;47817;52.798;27.544;2023-03-01T16:28:57;4.2;2.8;2.4
61879;PMS7003;47817;52.798;27.544;2023-03-01T16:33:44;5.6;3.2;2.2
61879;PMS7003;47817;52.798;27.544;2023-03-01T16:38:57;4.3;3.3;2.8
61879;PMS7003;47817;52.798;27.544;2023-03-01T16:43:32;8.6;6.4;5.2
61879;PMS7003;47817;52.798;27.544;2023-03-01T16:49:08;6.2;4.8;4
61879;PMS7003;47817;52.798;27.544;2023-03-01T16:53:56;6;4.6;3.2
61879;PMS7003;47817;52.798;27.544;2023-03-01T16:58:32;4.8;4.4;2.8
61879;PMS7003;47817;52.798;27.544;2023-03-01T17:03:56;6.4;4;3
61879;PMS7003;47817;52.798;27.544;2023-03-01T17:08:56;7.2;5.8;4.6
61879;PMS7003;47817;52.798;27.544;2023-03-01T17:13:54;8.2;5.4;3.6
61879;PMS7003;47817;52.798;27.544;2023-03-01T17:18:46;8.2;5.2;4.4
61879;PMS7003;47817;52.798;27.544;2023-03-01T17:23:34;7.4;6.4;3.8
61879;PMS7003;47817;52.798;27.544;2023-03-01T17:28:58;23.4;18.2;12.6
61879;PMS7003;47817;52.798;27.544;2023-03-01T17:34:08;19.3;16.3;10.8
61879;PMS7003;47817;52.798;27.544;2023-03-01T17:38:54;5.2;3.2;2.6
61879;PMS7003;47817;52.798;27.544;2023-03-01T17:43:46;17.6;12.2;8.8
61879;PMS7003;47817;52.798;27.544;2023-03-01T17:48:22;12.4;10.4;8.4
61879;PMS7003;47817;52.798;27.544;2023-03-01T17:54:08;5.2;4.2;3.4
61879;PMS7003;47817;52.798;27.544;2023-03-01T17:58:34;7;6.2;3.6
61879;PMS7003;47817;52.798;27.544;2023-03-01T18:03:56;7;4.4;3.6
61879;PMS7003;47817;52.798;27.544;2023-03-01T18:08:49;9;6.5;4.8
61879;PMS7003;47817;52.798;27.544;2023-03-01T18:13:34;7.6;6;4
61879;PMS7003;47817;52.798;27.544;2023-03-01T18:19:10;6.4;5.2;4.4
61879;PMS7003;47817;52.798;27.544;2023-03-01T18:23:46;6.6;4;3.6
61879;PMS7003;47817;52.798;27.544;2023-03-01T18:28:56;7.4;4;3.2
61879;PMS7003;47817;52.798;27.544;2023-03-01T18:33:22;5.8;5;2.6
61879;PMS7003;47817;52.798;27.544;2023-03-01T18:38:36;2.8;2;1.2
61879;PMS7003;47817;52.798;27.544;2023-03-01T18:44:10;3.5;2.3;1.3
61879;PMS7003;47817;52.798;27.544;2023-03-01T18:49:07;4.2;2.8;2.2
61879;PMS7003;47817;52.798;27.544;2023-03-01T18:53:57;3.4;2.8;1.8
61879;PMS7003;47817;52.798;27.544;2023-03-01T18:58:48;3.6;1.8;1.4
61879;PMS7003;47817;52.798;27.544;2023-03-01T19:03:46;4.4;2.2;1.4
61879;PMS7003;47817;52.798;27.544;2023-03-01T19:09:09;3.4;1;1
61879;PMS7003;47817;52.798;27.544;2023-03-01T19:13:48;2.8;2.2;1.6
61879;PMS7003;47817;52.798;27.544;2023-03-01T19:18:56;2.6;1.4;1.4
61879;PMS7003;47817;52.798;27.544;2023-03-01T19:23:48;2.8;1.4;1.2
61879;PMS7003;47817;52.798;27.544;2023-03-01T19:28:34;4;2.2;1.4
61879;PMS7003;47817;52.798;27.544;2023-03-01T19:34:08;2.8;2.6;1.8
61879;PMS7003;47817;52.798;27.544;2023-03-01T19:38:32;5;1.5;1.3
61879;PMS7003;47817;52.798;27.544;2023-03-01T19:43:54;2.4;1.4;1.2
61879;PMS7003;47817;52.798;27.544;2023-03-01T19:48:44;4.6;1.6;1.4
61879;PMS7003;47817;52.798;27.544;2023-03-01T19:53:32;4;2.2;1.6
61879;PMS7003;47817;52.798;27.544;2023-03-01T19:59:08;3;2;1.4
61879;PMS7003;47817;52.798;27.544;2023-03-01T20:03:34;5.8;5.2;3.4
61879;PMS7003;47817;52.798;27.544;2023-03-01T20:08:52;5;3.8;2.8
61879;PMS7003;47817;52.798;27.544;2023-03-01T20:13:46;3;1.8;1.4
61879;PMS7003;47817;52.798;27.544;2023-03-01T20:18:22;2.3;1.8;1
61879;PMS7003;47817;52.798;27.544;2023-03-01T20:24:08;2.2;1.4;1
61879;PMS7003;47817;52.798;27.544;2023-03-01T20:28:49;2.6;2.2;1
61879;PMS7003;47817;52.798;27.544;2023-03-01T20:33:34;4.6;2.6;2
61879;PMS7003;47817;52.798;27.544;2023-03-01T20:38:22;8.2;5.4;4.4
61879;PMS7003;47817;52.798;27.544;2023-03-01T20:43:22;25.3;18;12.5
61879;PMS7003;47817;52.798;27.544;2023-03-01T20:49:08;55;43.2;27.2
61879;PMS7003;47817;52.798;27.544;2023-03-01T20:53:46;11.8;10;7.8
61879;PMS7003;47817;52.798;27.544;2023-03-01T20:58:56;7.4;6.4;4.2
61879;PMS7003;47817;52.798;27.544;2023-03-01T21:04:00;4.8;3.4;2.6
61879;PMS7003;47817;52.798;27.544;2023-03-01T21:08:32;5.2;4.2;2.4
61879;PMS7003;47817;52.798;27.544;2023-03-01T21:13:42;6;4.4;3.2
61879;PMS7003;47817;52.798;27.544;2023-03-01T21:18:36;9.2;5.6;3.8
61879;PMS7003;47817;52.798;27.544;2023-03-01T21:24:10;7.6;5;4.4
61879;PMS7003;47817;52.798;27.544;2023-03-01T21:29:00;6.6;5.2;4
61879;PMS7003;47817;52.798;27.544;2023-03-01T21:33:34;8;5.2;3.8
61879;PMS7003;47817;52.798;27.544;2023-03-01T21:38:22;9.8;7.3;4.8
61879;PMS7003;47817;52.798;27.544;2023-03-01T21:43:34;7.6;6.2;4
61879;PMS7003;47817;52.798;27.544;2023-03-01T21:48:24;8.2;5.6;3.6
61879;PMS7003;47817;52.798;27.544;2023-03-01T21:53:58;7;5;3.4
61879;PMS7003;47817;52.798;27.544;2023-03-01T21:58:34;9.4;6.4;4.8
61879;PMS7003;47817;52.798;27.544;2023-03-01T22:03:44;10.6;7.6;4.6
61879;PMS7003;47817;52.798;27.544;2023-03-01T22:08:34;10.3;6.5;4.3
61879;PMS7003;47817;52.798;27.544;2023-03-01T22:14:08;9;7;5.2
61879;PMS7003;47817;52.798;27.544;2023-03-01T22:18:58;12.8;8.4;5.8
61879;PMS7003;47817;52.798;27.544;2023-03-01T22:23:22;13;8.4;5.6
61879;PMS7003;47817;52.798;27.544;2023-03-01T22:28:42;8.4;6.4;4.6
61879;PMS7003;47817;52.798;27.544;2023-03-01T22:33:22;12.6;8.8;6.2
61879;PMS7003;47817;52.798;27.544;2023-03-01T22:39:06;11.2;7.8;5.4
61879;PMS7003;47817;52.798;27.544;2023-03-01T22:43:56;10.8;8;5.8
61879;PMS7003;47817;52.798;27.544;2023-03-01T22:48:34;13;9.3;5.8
61879;PMS7003;47817;52.798;27.544;2023-03-01T22:53:30;10;8.8;5.6
61879;PMS7003;47817;52.798;27.544;2023-03-01T22:58:32;10.8;7;4.4
61879;PMS7003;47817;52.798;27.544;2023-03-01T23:04:08;12.6;7.6;5.4
61879;PMS7003;47817;52.798;27.544;2023-03-01T23:08:58;11;7.4;4.4
61879;PMS7003;47817;52.798;27.544;2023-03-01T23:13:42;13.4;8;5.2
61879;PMS7003;47817;52.798;27.544;2023-03-01T23:18:42;15.4;10.6;7.2
61879;PMS7003;47817;52.798;27.544;2023-03-01T23:23:22;13.4;9.2;6.2
61879;PMS7003;47817;52.798;27.544;2023-03-01T23:29:08;15.5;10;7.8
61879;PMS7003;47817;52.798;27.544;2023-03-01T23:33:36;14.8;10.6;6.6
61879;PMS7003;47817;52.798;27.544;2023-03-01T23:38:42;13.8;10.8;7.4
61879;PMS7003;47817;52.798;27.544;2023-03-01T23:43:30;12.2;10.6;7.4
61879;PMS7003;47817;52.798;27.544;2023-03-01T23:48:32;13.6;10.6;6.6
61879;PMS7003;47817;52.798;27.544;2023-03-01T23:54:08;13.4;9.8;6.8
61879;PMS7003;47817;52.798;27.544;2023-03-01T23:58:58;14.2;10.4;7.4
